createdAt,value
2019-03-04T00:02:27.289Z,11.90
2019-03-04T00:04:56.404Z,11.90
2019-03-04T00:07:24.480Z,11.90
2019-03-04T00:09:53.004Z,12.00
2019-03-04T00:12:20.316Z,11.90
2019-03-04T00:14:49.083Z,11.20
2019-03-04T00:17:16.480Z,11.90
2019-03-04T00:19:44.328Z,11.90
2019-03-04T00:22:12.315Z,11.90
2019-03-04T00:24:39.387Z,11.90
2019-03-04T00:27:06.427Z,11.80
2019-03-04T00:29:33.404Z,11.90
2019-03-04T00:32:00.434Z,11.90
2019-03-04T00:34:29.428Z,11.90
2019-03-04T00:36:57.682Z,11.90
2019-03-04T00:39:24.983Z,11.90
2019-03-04T00:41:51.875Z,11.90
2019-03-04T00:44:20.068Z,12.00
2019-03-04T00:46:47.107Z,12.00
2019-03-04T00:49:15.122Z,11.90
2019-03-04T00:51:42.163Z,11.90
2019-03-04T00:54:09.049Z,11.90
2019-03-04T00:56:37.443Z,11.90
2019-03-04T00:59:04.497Z,11.90
2019-03-04T01:01:32.024Z,11.90
2019-03-04T01:03:59.768Z,11.80
2019-03-04T01:06:26.784Z,11.80
2019-03-04T01:08:54.079Z,11.80
2019-03-04T01:11:21.872Z,11.80
2019-03-04T01:13:49.691Z,11.80
2019-03-04T01:16:18.664Z,11.80
2019-03-04T01:18:45.672Z,11.70
2019-03-04T01:21:13.463Z,11.70
2019-03-04T01:23:40.349Z,11.70
2019-03-04T01:26:08.368Z,11.60
2019-03-04T01:28:36.171Z,11.60
2019-03-04T01:31:04.771Z,11.50
2019-03-04T01:33:32.596Z,11.60
2019-03-04T01:36:00.178Z,11.60
2019-03-04T01:38:27.386Z,11.60
2019-03-04T01:40:54.432Z,11.50
2019-03-04T01:43:23.439Z,11.60
2019-03-04T01:45:50.972Z,11.60
2019-03-04T01:48:18.299Z,11.60
2019-03-04T01:50:47.055Z,11.60
2019-03-04T01:53:14.778Z,11.60
2019-03-04T01:55:43.109Z,11.60
2019-03-04T01:58:10.028Z,11.70
2019-03-04T02:00:37.657Z,11.60
2019-03-04T02:03:05.330Z,11.60
2019-03-04T02:05:32.439Z,11.70
2019-03-04T02:08:00.044Z,11.70
2019-03-04T02:10:27.650Z,11.70
2019-03-04T02:12:54.920Z,11.70
2019-03-04T02:15:21.975Z,11.70
2019-03-04T02:17:49.736Z,11.70
2019-03-04T02:20:17.480Z,11.80
2019-03-04T02:22:44.927Z,11.90
2019-03-04T02:25:14.035Z,11.90
2019-03-04T02:27:43.940Z,11.90
2019-03-04T02:30:17.255Z,11.90
2019-03-04T02:32:44.232Z,12.00
2019-03-04T02:35:11.722Z,12.00
2019-03-04T02:37:38.668Z,12.00
2019-03-04T02:40:06.761Z,12.00
2019-03-04T02:42:33.945Z,12.00
2019-03-04T02:45:00.968Z,12.10
2019-03-04T02:47:29.096Z,12.10
2019-03-04T02:49:56.909Z,12.10
2019-03-04T02:52:24.300Z,12.10
2019-03-04T02:54:52.019Z,12.10
2019-03-04T02:57:20.058Z,12.10
2019-03-04T02:59:47.346Z,12.10
2019-03-04T03:02:16.176Z,12.10
2019-03-04T03:04:43.178Z,12.10
2019-03-04T03:07:10.236Z,12.10
2019-03-04T03:09:37.258Z,12.20
2019-03-04T03:12:04.256Z,12.20
2019-03-04T03:14:31.281Z,12.10
2019-03-04T03:16:59.136Z,12.10
2019-03-04T03:19:26.173Z,12.10
2019-03-04T03:21:53.185Z,12.20
2019-03-04T03:24:21.069Z,12.10
2019-03-04T03:26:48.817Z,12.10
2019-03-04T03:29:15.662Z,12.10
2019-03-04T03:31:42.693Z,12.10
2019-03-04T03:34:10.298Z,12.10
2019-03-04T03:36:38.008Z,12.10
2019-03-04T03:39:07.232Z,12.10
2019-03-04T03:41:35.824Z,12.10
2019-03-04T03:44:03.086Z,12.10
2019-03-04T03:46:30.150Z,12.10
2019-03-04T03:48:58.905Z,12.10
2019-03-04T03:51:26.750Z,12.10
2019-03-04T03:53:55.091Z,12.10
2019-03-04T03:56:22.208Z,12.00
2019-03-04T03:58:51.709Z,12.10
2019-03-04T04:01:19.567Z,12.10
2019-03-04T04:03:47.375Z,12.10
2019-03-04T04:06:15.926Z,12.10
2019-03-04T04:08:43.370Z,12.10
2019-03-04T04:11:12.643Z,12.00
2019-03-04T04:13:40.147Z,12.00
2019-03-04T04:16:07.265Z,12.00
2019-03-04T04:18:35.804Z,12.00
2019-03-04T04:21:03.155Z,12.00
2019-03-04T04:23:31.881Z,11.90
2019-03-04T04:26:00.122Z,12.00
2019-03-04T04:28:29.291Z,11.90
2019-03-04T04:30:56.404Z,11.90
2019-03-04T04:33:24.585Z,11.90
2019-03-04T04:35:52.960Z,12.00
2019-03-04T04:38:20.166Z,12.00
2019-03-04T04:40:47.983Z,11.90
2019-03-04T04:43:16.617Z,11.90
2019-03-04T04:45:45.571Z,11.90
2019-03-04T04:48:14.072Z,11.90
2019-03-04T04:50:41.097Z,11.90
2019-03-04T04:53:08.190Z,11.90
2019-03-04T04:55:35.132Z,11.80
2019-03-04T04:58:03.777Z,11.90
2019-03-04T05:00:31.468Z,11.90
2019-03-04T05:02:58.755Z,11.80
2019-03-04T05:05:27.892Z,11.80
2019-03-04T05:07:56.075Z,11.80
2019-03-04T05:10:24.574Z,11.80
2019-03-04T05:12:53.783Z,11.80
2019-03-04T05:15:22.752Z,11.80
2019-03-04T05:17:51.012Z,11.80
2019-03-04T05:20:19.315Z,11.80
2019-03-04T05:22:46.308Z,11.80
2019-03-04T05:25:13.375Z,11.80
2019-03-04T05:27:41.852Z,11.80
2019-03-04T05:30:12.261Z,11.80
2019-03-04T05:32:39.393Z,11.80
2019-03-04T05:35:06.579Z,11.80
2019-03-04T05:37:34.092Z,11.80
2019-03-04T05:40:01.441Z,11.80
2019-03-04T05:42:31.644Z,11.80
2019-03-04T05:45:00.341Z,11.80
2019-03-04T05:47:28.468Z,11.70
2019-03-04T05:49:55.748Z,11.70
2019-03-04T05:52:23.337Z,11.70
2019-03-04T05:54:50.472Z,11.70
2019-03-04T05:57:17.631Z,11.70
2019-03-04T05:59:45.962Z,11.70
2019-03-04T06:02:13.061Z,11.70
2019-03-04T06:04:42.172Z,11.70
2019-03-04T06:07:34.715Z,11.70
2019-03-04T06:10:02.679Z,11.70
2019-03-04T06:12:31.104Z,11.70
2019-03-04T06:15:00.336Z,11.70
2019-03-04T06:17:27.443Z,11.70
2019-03-04T06:19:54.468Z,11.80
2019-03-04T06:22:22.068Z,11.80
2019-03-04T06:24:50.155Z,11.70
2019-03-04T06:27:17.140Z,11.70
2019-03-04T06:29:44.496Z,11.70
2019-03-04T06:32:12.584Z,11.70
2019-03-04T06:34:40.607Z,11.70
2019-03-04T06:37:07.624Z,11.60
2019-03-04T06:39:36.284Z,11.70
2019-03-04T06:42:03.635Z,11.70
2019-03-04T06:44:30.769Z,11.60
2019-03-04T06:46:58.129Z,11.60
2019-03-04T06:49:27.319Z,11.70
2019-03-04T06:51:56.028Z,11.60
2019-03-04T06:54:56.092Z,11.70
2019-03-04T06:57:38.624Z,11.70
2019-03-04T07:00:39.246Z,11.70
2019-03-04T07:03:10.535Z,11.70
2019-03-04T07:05:48.544Z,11.70
2019-03-04T07:09:07.500Z,11.70
2019-03-04T07:11:34.867Z,11.80
2019-03-04T07:14:02.323Z,11.80
2019-03-04T07:16:29.437Z,11.70
2019-03-04T07:18:56.963Z,11.70
2019-03-04T07:21:24.233Z,11.80
2019-03-04T07:23:52.455Z,11.80
2019-03-04T07:26:20.403Z,11.80
2019-03-04T07:28:48.576Z,11.70
2019-03-04T07:31:16.140Z,11.80
2019-03-04T07:33:43.326Z,11.80
2019-03-04T07:36:11.007Z,11.80
2019-03-04T07:38:51.616Z,11.80
2019-03-04T07:41:19.710Z,11.90
2019-03-04T07:43:48.755Z,11.90
2019-03-04T07:46:17.296Z,12.00
2019-03-04T07:48:44.547Z,11.90
2019-03-04T07:51:13.382Z,11.90
2019-03-04T07:53:46.280Z,11.90
2019-03-04T07:56:10.768Z,12.00
2019-03-04T07:58:38.436Z,12.00
2019-03-04T08:01:07.095Z,11.90
2019-03-04T08:03:34.591Z,11.90
2019-03-04T08:06:03.139Z,12.00
2019-03-04T08:08:30.288Z,12.00
2019-03-04T08:11:45.926Z,12.10
2019-03-04T08:14:13.764Z,12.10
2019-03-04T08:16:42.963Z,12.10
2019-03-04T08:19:11.240Z,12.10
2019-03-04T08:21:38.447Z,12.10
2019-03-04T08:24:05.468Z,12.10
2019-03-04T08:26:32.763Z,12.10
2019-03-04T08:28:59.867Z,12.20
2019-03-04T08:31:27.327Z,12.20
2019-03-04T08:33:54.476Z,12.20
2019-03-04T08:36:21.928Z,12.20
2019-03-04T08:38:49.016Z,12.20
2019-03-04T08:41:16.764Z,12.20
2019-03-04T08:43:43.691Z,12.20
2019-03-04T08:46:11.804Z,12.20
2019-03-04T08:48:39.068Z,12.20
2019-03-04T08:51:06.079Z,12.20
2019-03-04T08:53:33.764Z,12.30
2019-03-04T08:56:00.724Z,12.30
2019-03-04T08:58:27.745Z,12.20
2019-03-04T09:00:54.968Z,12.30
2019-03-04T09:03:22.295Z,12.20
2019-03-04T09:05:49.816Z,12.20
2019-03-04T09:08:17.773Z,12.10
2019-03-04T09:10:45.604Z,12.20
2019-03-04T09:13:12.675Z,12.20
2019-03-04T09:15:40.088Z,12.20
2019-03-04T09:18:07.547Z,12.20
2019-03-04T09:20:34.542Z,12.20
2019-03-04T09:23:01.704Z,12.20
2019-03-04T09:25:34.396Z,12.20
2019-03-04T09:28:01.490Z,12.20
2019-03-04T09:30:28.471Z,12.30
2019-03-04T09:32:56.448Z,12.20
2019-03-04T09:35:23.588Z,12.20
2019-03-04T09:37:50.675Z,12.20
2019-03-04T09:40:17.775Z,12.20
2019-03-04T09:42:46.321Z,12.30
2019-03-04T09:45:13.923Z,12.40
2019-03-04T09:47:41.276Z,12.40
2019-03-04T09:50:10.835Z,12.50
2019-03-04T09:52:38.357Z,12.60
2019-03-04T09:55:07.000Z,12.70
2019-03-04T09:57:34.343Z,12.70
2019-03-04T10:00:03.044Z,12.80
2019-03-04T10:02:40.920Z,12.80
2019-03-04T10:05:32.215Z,12.90
2019-03-04T10:08:21.522Z,13.00
2019-03-04T10:11:13.135Z,13.10
2019-03-04T10:14:09.580Z,13.20
2019-03-04T10:17:28.048Z,13.20
2019-03-04T10:20:32.355Z,13.20
2019-03-04T10:23:08.572Z,13.10
2019-03-04T10:26:03.175Z,13.00
2019-03-04T10:28:57.736Z,12.90
2019-03-04T10:31:56.582Z,12.90
2019-03-04T10:35:18.461Z,13.00
2019-03-04T10:38:09.936Z,13.10
2019-03-04T10:41:07.120Z,13.30
2019-03-04T10:44:29.693Z,13.30
2019-03-04T10:46:58.395Z,13.30
2019-03-04T10:49:29.476Z,13.30
2019-03-04T10:51:57.103Z,13.30
2019-03-04T10:54:24.724Z,13.40
2019-03-04T10:56:51.878Z,13.30
2019-03-04T10:59:20.236Z,13.30
2019-03-04T11:01:47.363Z,13.20
2019-03-04T11:04:14.852Z,13.10
2019-03-04T11:06:41.937Z,12.90
2019-03-04T11:09:09.316Z,12.90
2019-03-04T11:11:37.795Z,12.70
2019-03-04T11:14:05.562Z,12.60
2019-03-04T11:16:32.844Z,12.50
2019-03-04T11:19:00.016Z,12.40
2019-03-04T11:21:29.231Z,12.60
2019-03-04T11:23:57.003Z,12.60
2019-03-04T11:26:24.164Z,12.50
2019-03-04T11:28:52.143Z,12.60
2019-03-04T11:31:19.272Z,12.70
2019-03-04T11:33:46.271Z,12.90
2019-03-04T11:36:15.199Z,13.00
2019-03-04T11:38:45.255Z,13.10
2019-03-04T11:41:15.700Z,13.10
2019-03-04T11:43:43.427Z,13.00
2019-03-04T11:46:10.773Z,13.00
2019-03-04T11:48:38.140Z,12.90
2019-03-04T11:51:05.255Z,12.90
2019-03-04T11:53:33.975Z,12.90
2019-03-04T11:56:01.909Z,12.90
2019-03-04T11:58:28.913Z,12.80
2019-03-04T12:01:00.916Z,12.70
2019-03-04T12:03:28.441Z,12.70
2019-03-04T12:05:55.968Z,12.70
2019-03-04T12:08:22.848Z,12.70
2019-03-04T12:10:50.400Z,12.70
2019-03-04T12:13:18.619Z,12.80
2019-03-04T12:15:46.815Z,12.60
2019-03-04T12:18:14.923Z,12.60
2019-03-04T12:20:42.472Z,12.60
2019-03-04T12:23:10.206Z,12.60
2019-03-04T12:25:38.831Z,12.60
2019-03-04T12:28:06.840Z,12.60
2019-03-04T12:30:34.541Z,12.70
2019-03-04T12:33:02.095Z,12.70
2019-03-04T12:35:29.239Z,12.70
2019-03-04T12:37:56.465Z,12.80
2019-03-04T12:40:24.342Z,12.80
2019-03-04T12:42:52.431Z,12.70
2019-03-04T12:45:20.232Z,12.60
2019-03-04T12:47:48.364Z,12.50
2019-03-04T12:50:19.443Z,12.60
2019-03-04T12:52:47.492Z,12.60
2019-03-04T12:55:14.712Z,12.40
2019-03-04T12:57:42.407Z,12.40
2019-03-04T13:00:13.110Z,12.40
2019-03-04T13:02:41.244Z,12.30
2019-03-04T13:05:09.209Z,12.30
2019-03-04T13:07:36.600Z,12.40
2019-03-04T13:10:04.308Z,12.50
2019-03-04T13:12:32.298Z,12.40
2019-03-04T13:14:59.562Z,12.30
2019-03-04T13:17:26.555Z,12.30
2019-03-04T13:19:54.045Z,12.20
2019-03-04T13:22:22.954Z,12.00
2019-03-04T13:24:51.734Z,11.80
2019-03-04T13:27:23.694Z,11.70
2019-03-04T13:29:49.511Z,11.70
2019-03-04T13:32:17.576Z,11.70
2019-03-04T13:34:45.447Z,11.70
2019-03-04T13:37:12.743Z,11.70
2019-03-04T13:39:41.011Z,11.60
2019-03-04T13:42:08.775Z,11.50
2019-03-04T13:44:35.905Z,11.60
2019-03-04T13:47:03.047Z,11.70
2019-03-04T13:49:31.725Z,11.60
2019-03-04T13:51:58.892Z,11.60
2019-03-04T13:54:27.363Z,11.40
2019-03-04T13:56:55.364Z,11.40
2019-03-04T13:59:25.300Z,11.30
2019-03-04T14:01:53.494Z,11.40
2019-03-04T14:04:21.158Z,11.40
2019-03-04T14:06:49.099Z,11.50
2019-03-04T14:09:19.383Z,11.50
2019-03-04T14:11:46.804Z,11.40
2019-03-04T14:14:15.296Z,11.40
2019-03-04T14:16:42.639Z,11.50
2019-03-04T14:19:09.872Z,11.50
2019-03-04T14:21:36.852Z,11.60
2019-03-04T14:24:03.983Z,11.60
2019-03-04T14:26:30.839Z,11.50
2019-03-04T14:28:59.473Z,11.50
2019-03-04T14:31:28.222Z,11.40
2019-03-04T14:33:55.569Z,11.40
2019-03-04T14:36:23.173Z,11.40
2019-03-04T14:38:50.916Z,11.20
2019-03-04T14:41:18.660Z,11.30
2019-03-04T14:43:46.092Z,11.20
2019-03-04T14:46:21.602Z,11.10
2019-03-04T14:48:48.735Z,11.10
2019-03-04T14:51:16.205Z,10.90
2019-03-04T14:53:43.373Z,11.00
2019-03-04T14:56:10.476Z,11.00
2019-03-04T14:58:37.900Z,11.10
2019-03-04T15:01:05.540Z,11.20
2019-03-04T15:03:32.835Z,11.20
2019-03-04T15:06:06.887Z,11.00
2019-03-04T15:08:28.709Z,10.90
2019-03-04T15:10:55.803Z,10.60
2019-03-04T15:13:23.262Z,10.60
2019-03-04T15:16:00.783Z,10.60
2019-03-04T15:18:20.777Z,10.60
2019-03-04T15:20:47.691Z,10.70
2019-03-04T15:23:15.036Z,10.70
2019-03-04T15:25:42.312Z,10.70
2019-03-04T15:28:14.545Z,10.60
2019-03-04T15:30:42.355Z,10.70
2019-03-04T15:33:17.459Z,10.70
2019-03-04T15:35:39.699Z,10.70
2019-03-04T15:38:07.740Z,10.70
2019-03-04T15:40:35.062Z,10.70
2019-03-04T15:43:03.228Z,10.80
2019-03-04T15:45:30.362Z,10.60
2019-03-04T15:47:57.503Z,10.70
2019-03-04T15:50:24.723Z,10.70
2019-03-04T15:52:51.835Z,10.80
2019-03-04T15:55:19.002Z,10.80
2019-03-04T15:57:48.449Z,10.70
2019-03-04T16:00:15.387Z,10.70
2019-03-04T16:02:43.399Z,10.70
2019-03-04T16:05:10.879Z,10.60
2019-03-04T16:07:38.007Z,10.60
2019-03-04T16:10:08.040Z,10.70
2019-03-04T16:12:37.139Z,10.70
2019-03-04T16:15:06.763Z,10.70
2019-03-04T16:17:34.480Z,10.60
2019-03-04T16:20:01.833Z,10.60
2019-03-04T16:22:28.932Z,10.50
2019-03-04T16:24:56.804Z,10.50
2019-03-04T16:27:24.991Z,10.40
2019-03-04T16:29:53.483Z,10.50
2019-03-04T16:32:20.735Z,10.50
2019-03-04T16:34:47.709Z,10.50
2019-03-04T16:37:15.083Z,10.50
2019-03-04T16:39:42.598Z,10.50
2019-03-04T16:42:10.214Z,10.50
2019-03-04T16:44:39.858Z,10.40
2019-03-04T16:47:08.027Z,10.30
2019-03-04T16:49:36.912Z,10.40
2019-03-04T16:52:06.552Z,10.40
2019-03-04T16:54:34.176Z,10.50
2019-03-04T16:57:09.060Z,10.50
2019-03-04T16:59:36.415Z,10.40
2019-03-04T17:02:04.116Z,10.40
2019-03-04T17:04:31.232Z,10.40
2019-03-04T17:06:58.940Z,10.40
2019-03-04T17:09:26.120Z,10.40
2019-03-04T17:11:54.632Z,10.30
2019-03-04T17:14:21.889Z,10.30
2019-03-04T17:16:48.936Z,10.30
2019-03-04T17:19:16.079Z,10.30
2019-03-04T17:21:44.783Z,10.30
2019-03-04T17:24:12.155Z,10.20
2019-03-04T17:26:40.380Z,10.20
2019-03-04T17:29:07.869Z,10.30
2019-03-04T17:31:34.968Z,10.20
2019-03-04T17:34:03.961Z,10.30
2019-03-04T17:36:33.010Z,10.30
2019-03-04T17:39:00.498Z,10.20
2019-03-04T17:41:29.895Z,10.20
2019-03-04T17:43:56.938Z,10.20
2019-03-04T17:46:25.917Z,10.10
2019-03-04T17:48:53.575Z,10.10
2019-03-04T17:51:22.596Z,10.10
2019-03-04T17:53:51.616Z,10.10
2019-03-04T17:56:18.912Z,10.10
2019-03-04T17:58:46.043Z,10.10
2019-03-04T18:01:13.545Z,10.10
2019-03-04T18:03:41.705Z,10.10
2019-03-04T18:06:09.788Z,10.20
2019-03-04T18:08:37.049Z,10.30
2019-03-04T18:11:04.631Z,10.20
2019-03-04T18:13:32.103Z,10.20
2019-03-04T18:16:00.508Z,10.20
2019-03-04T18:18:28.427Z,10.20
2019-03-04T18:20:56.267Z,10.20
2019-03-04T18:23:23.924Z,10.20
2019-03-04T18:26:02.215Z,10.20
2019-03-04T18:28:38.475Z,10.20
2019-03-04T18:31:15.544Z,10.20
2019-03-04T18:34:15.387Z,10.30
2019-03-04T18:37:20.227Z,10.30
2019-03-04T18:40:18.132Z,10.20
2019-03-04T18:43:19.063Z,10.30
2019-03-04T18:46:33.547Z,10.30
2019-03-04T18:49:00.906Z,10.20
2019-03-04T18:51:29.480Z,10.10
2019-03-04T18:54:19.451Z,10.20
2019-03-04T18:56:47.188Z,10.20
2019-03-04T18:59:14.612Z,10.10
2019-03-04T19:01:41.800Z,10.10
2019-03-04T19:04:09.768Z,10.20
2019-03-04T19:06:37.042Z,10.20
2019-03-04T19:09:06.366Z,10.00
2019-03-04T19:11:33.799Z,10.10
2019-03-04T19:14:00.884Z,10.00
2019-03-04T19:16:28.600Z,10.10
2019-03-04T19:18:55.978Z,10.00
2019-03-04T19:21:23.573Z,9.90
2019-03-04T19:23:51.086Z,10.00
2019-03-04T19:26:18.523Z,9.90
2019-03-04T19:28:45.855Z,9.80
2019-03-04T19:31:13.957Z,9.80
2019-03-04T19:33:41.183Z,9.80
2019-03-04T19:36:09.361Z,9.90
2019-03-04T19:38:36.668Z,9.90
2019-03-04T19:41:03.739Z,9.90
2019-03-04T19:43:33.110Z,9.90
2019-03-04T19:46:00.429Z,9.90
2019-03-04T19:48:28.533Z,10.00
2019-03-04T19:50:55.632Z,9.90
2019-03-04T19:53:23.330Z,9.90
2019-03-04T19:55:51.331Z,9.90
2019-03-04T19:58:18.805Z,9.90
2019-03-04T20:00:47.438Z,9.90
2019-03-04T20:03:14.891Z,9.80
2019-03-04T20:05:43.761Z,9.80
2019-03-04T20:08:12.247Z,9.90
2019-03-04T20:10:39.408Z,9.90
2019-03-04T20:13:06.428Z,9.80
2019-03-04T20:15:33.880Z,9.80
2019-03-04T20:18:02.156Z,9.80
2019-03-04T20:20:30.115Z,9.70
2019-03-04T20:22:57.365Z,9.60
2019-03-04T20:25:25.272Z,9.60
2019-03-04T20:27:52.363Z,9.60
2019-03-04T20:30:19.704Z,9.60
2019-03-04T20:32:48.221Z,9.60
2019-03-04T20:35:15.399Z,9.50
2019-03-04T20:37:44.719Z,9.60
2019-03-04T20:40:11.851Z,9.60
2019-03-04T20:42:39.680Z,9.60
2019-03-04T20:45:09.396Z,9.60
2019-03-04T20:47:38.536Z,9.60
2019-03-04T20:50:08.420Z,9.60
2019-03-04T20:52:35.484Z,9.50
2019-03-04T20:55:03.347Z,9.60
2019-03-04T20:57:30.599Z,9.50
2019-03-04T20:59:57.603Z,9.50
2019-03-04T21:02:24.703Z,9.50
2019-03-04T21:04:54.724Z,9.60
2019-03-04T21:07:25.313Z,9.50
2019-03-04T21:09:55.058Z,9.50
2019-03-04T21:12:22.648Z,9.50
2019-03-04T21:14:51.116Z,9.40
2019-03-04T21:17:18.501Z,9.50
2019-03-04T21:19:46.455Z,9.50
2019-03-04T21:22:15.011Z,9.50
2019-03-04T21:24:43.287Z,9.50
2019-03-04T21:27:10.348Z,9.50
2019-03-04T21:29:58.828Z,9.60
2019-03-04T21:32:34.419Z,9.60
2019-03-04T21:35:27.580Z,9.60
2019-03-04T21:37:55.924Z,9.50
2019-03-04T21:40:45.871Z,9.50
2019-03-04T21:43:18.421Z,9.60
2019-03-04T21:46:18.619Z,9.60
2019-03-04T21:48:52.808Z,9.60
2019-03-04T21:51:51.752Z,9.60
2019-03-04T21:54:19.074Z,9.60
2019-03-04T21:57:00.908Z,9.50
2019-03-04T21:59:28.676Z,9.60
2019-03-04T22:02:30.027Z,9.60
2019-03-04T22:04:59.690Z,9.50
2019-03-04T22:07:27.109Z,9.50
2019-03-04T22:09:54.383Z,9.60
2019-03-04T22:12:22.695Z,9.60
2019-03-04T22:14:50.367Z,9.60
2019-03-04T22:17:17.369Z,9.60
2019-03-04T22:19:44.883Z,9.70
2019-03-04T22:22:12.514Z,9.60
2019-03-04T22:24:39.635Z,9.70
2019-03-04T22:27:07.908Z,9.60
2019-03-04T22:29:35.029Z,9.50
2019-03-04T22:32:03.011Z,9.50
2019-03-04T22:34:31.591Z,9.50
2019-03-04T22:36:59.032Z,9.60
2019-03-04T22:39:27.440Z,9.70
2019-03-04T22:41:55.156Z,9.60
2019-03-04T22:44:23.016Z,9.60
2019-03-04T22:46:51.111Z,9.60
2019-03-04T22:49:19.428Z,9.50
2019-03-04T22:51:47.328Z,9.50
2019-03-04T22:54:14.380Z,9.50
2019-03-04T22:56:41.285Z,9.60
2019-03-04T22:59:08.364Z,9.70
2019-03-04T23:01:45.614Z,9.70
2019-03-04T23:04:43.028Z,9.70
2019-03-04T23:07:12.767Z,9.50
2019-03-04T23:10:09.616Z,9.50
2019-03-04T23:12:42.830Z,9.50
2019-03-04T23:15:13.311Z,9.50
2019-03-04T23:17:40.355Z,9.40
2019-03-04T23:20:07.395Z,9.50
2019-03-04T23:22:36.412Z,9.60
2019-03-04T23:25:04.193Z,9.60
2019-03-04T23:27:32.675Z,9.60
2019-03-04T23:29:59.880Z,9.60
2019-03-04T23:32:26.940Z,9.60
2019-03-04T23:34:54.380Z,9.60
2019-03-04T23:37:21.525Z,9.70
2019-03-04T23:39:48.988Z,9.60
2019-03-04T23:42:15.985Z,9.70
2019-03-04T23:44:44.289Z,9.60
2019-03-04T23:47:13.079Z,9.60
2019-03-04T23:49:40.152Z,9.70
2019-03-04T23:52:07.734Z,9.60
2019-03-04T23:54:35.083Z,9.50
2019-03-04T23:57:03.683Z,9.60
2019-03-04T23:59:32.510Z,9.60
